Search METAR Data

METAR Data for DNEN:

DNEN 241100Z 15007KT 9999 FEW013 32/24 Q1011 NOSIG